Portada
METAR-TAF:

METAR-TAF

Aeropuertos :

Viru-Viru, Bolivia

Aeropuerto Internacional Viru Viru

latitud: 17-38S, longitud: 063-08W, altitud: 373 m

Observación

El informe se hizo hace 27 minutos, a las 00:00 UTC
Viento 6 kt del sur
Temperatura 21°C
Humedad 73%
Presión 1016 hPa
Visibilidad 10 km o más
Nubes dispersas a una altura de 7000 ft

METAR: SLVR 010000Z 18006KT 9999 SCT070 21/16 Q1016

Hora: 20:27 (00:27 UTC)

Pronóstico

El informe se hizo hace 2 horas y 27 minutos, a las 22:00 UTC
Pronóstico válido del 01 a las 00 UTC al 01 a las 24 UTC
Viento 5 kt del sureste
Visibilidad 10 km o más
Evolucionando progresivamente
del 01 a las 15 UTC al 01 a las 18 UTC
Viento 2 kt con dirección variable
Escasas nubes a una altura de 2000 ft

TAF: SLVR 302200Z 0100/0124 14005KT 9999 NSC TX30/0119Z TN18/0111Z BECMG 0115/0118 VRB02KT FEW020

Observaciones y pronósticos meteorológicos de más de 4000 aeropuertos (mensajes METAR y TAF).

Los puntos amarillos y rojos representan las estaciones disponibles.

Ponga el ratón en el punto deseado para ver el nombre de la estación.

Haga clic para ver las observaciones y los pronósticos meteorológicos.

Para cambiar el mapa : haga clic en los botones verdes con una cruz de color negro para hacer un zoom, en el botón verde con un guión para alejar o en las flechas verdes para mapas adyacentes.


METAR-TAF: